CST,Max TemperatureF,Mean TemperatureF,Min TemperatureF,Max Dew PointF,MeanDew PointF,Min DewpointF,Max Humidity, Mean Humidity, Min Humidity, Max Sea Level PressureIn, Mean Sea Level PressureIn, Min Sea Level PressureIn, Max VisibilityMiles, Mean VisibilityMiles, Min VisibilityMiles, Max Wind SpeedMPH, Mean Wind SpeedMPH, Max Gust SpeedMPH,PrecipitationIn, CloudCover, Events, WindDirDegrees
2013-11-1,63,54,44,52,47,42,100,81,57,29.84,29.72,29.60,10,10,10,17,11,26,0.00,4,,257
2013-11-2,57,46,36,46,41,36,98,85,63,30.19,29.98,29.83,10,10,10,18,5,26,0.00,3,Rain,293
2013-11-3,57,44,31,42,36,31,100,81,45,30.35,30.27,30.18,10,9,5,9,2,,0.00,0,,143
2013-11-4,59,51,43,46,42,39,86,72,57,30.32,30.28,30.24,10,10,10,15,7,18,0.00,0,,161
2013-11-5,65,58,50,50,48,46,96,73,54,30.37,30.26,30.12,10,10,7,15,6,20,0.03,5,Rain,159
2013-11-6,61,50,40,56,49,39,96,87,64,30.21,30.08,29.98,10,9,2,22,13,26,0.26,7,Rain,237
2013-11-7,52,42,32,39,33,28,96,72,39,30.38,30.30,30.21,10,10,10,14,6,22,0.06,1,,288
2013-11-8,55,42,28,37,32,28,99,69,38,30.41,30.31,30.19,10,10,10,13,3,,0.00,0,,185
2013-11-9,65,53,41,43,39,32,89,63,41,30.21,30.13,30.07,10,10,10,20,11,26,0.00,0,,227
2013-11-10,54,43,31,40,35,32,99,72,43,30.41,30.34,30.21,10,10,2,15,6,21,0.00,0,,320
2013-11-11,56,43,30,46,37,30,99,80,46,30.42,30.25,30.13,10,10,5,21,5,30,0.02,6,Rain-Snow,270
2013-11-12,39,32,24,33,26,22,97,80,64,30.71,30.64,30.43,10,10,4,16,11,22,0.00,2,Snow,340
2013-11-13,42,31,20,26,22,18,98,73,38,30.70,30.58,30.38,10,10,10,12,5,,0.00,0,,215
2013-11-14,56,41,26,28,25,22,85,56,27,30.38,30.24,30.13,10,10,10,17,8,23,0.00,0,,192
2013-11-15,58,48,38,46,34,26,87,60,37,30.14,30.09,30.04,10,10,10,15,9,18,0.00,4,,183
2013-11-16,65,58,50,62,54,47,97,86,68,30.05,29.92,29.72,10,8,3,23,13,30,0.03,7,Rain-Thunderstorm,172
2013-11-17,71,61,51,66,56,41,97,78,38,29.93,29.68,29.46,10,10,2,31,16,46,1.64,4,Rain-Thunderstorm,231
2013-11-18,53,46,37,43,37,31,88,71,48,30.29,30.13,29.94,10,10,10,22,10,29,0.00,0,,297
2013-11-19,46,38,30,33,31,28,95,80,55,30.38,30.33,30.29,10,10,1,7,4,,0.00,0,,48
2013-11-20,50,40,30,40,34,28,96,75,55,30.31,30.22,30.15,10,10,10,12,5,,0.00,2,Rain,128
2013-11-21,53,50,48,51,47,39,99,87,63,30.25,30.20,30.16,10,7,1,9,5,,0.23,8,Rain,171
2013-11-22,51,43,35,51,43,32,99,91,78,30.48,30.35,30.19,10,6,0,16,6,24,0.01,7,Fog,343
2013-11-23,34,28,21,32,23,13,94,75,61,30.70,30.57,30.47,10,10,10,21,10,29,0.00,2,,339
2013-11-24,30,24,17,21,15,11,92,72,45,30.77,30.65,30.51,10,10,10,12,5,,0.00,0,,351
2013-11-25,36,30,24,31,23,19,90,71,52,30.50,30.32,30.19,10,10,10,12,5,,0.00,6,,192
2013-11-26,41,34,27,32,28,19,96,77,59,30.22,30.10,30.01,10,10,10,23,4,33,0.00,7,,333
2013-11-27,29,24,18,20,13,10,88,67,46,30.36,30.26,30.12,10,10,10,18,12,25,0.00,0,,308
2013-11-28,42,29,16,26,20,14,88,69,45,30.49,30.37,30.28,10,10,10,20,6,25,0.00,0,,218
2013-11-29,43,31,19,26,23,18,96,75,47,30.64,30.55,30.46,10,10,10,7,3,,0.00,0,,110
2013-11-30,54,39,24,32,29,23,94,66,41,30.46,30.29,30.15,10,10,7,17,5,21,0.00,0,,181